Terminal Aerodrome Forecast
Issued by NWS

Home | Current Version | Previous Version | Text Only | Print | Product List | Glossary On
Versions: 1 2 3 4 5 6 7 8 9 10 11 12 13 14 15 16 17 18 19 20
000
FTUS43 KGRR 150540
TAFBTL
TAF
KBTL 150540Z 1506/1606 22006KT P6SM -SHSN OVC035
     FM151200 22012KT 2SM -SN OVC035
     FM151500 26014G22KT 4SM -SHSN OVC015
     FM151900 26013KT P6SM OVC015
     FM160300 24007KT 4SM -SN OVC015
     FM160500 24008KT 4SM -SN OVC007=

USA.gov is the U.S. government's official web portal to all federal, state and local government web resources and services.